sensor_id;sensor_type;location;lat;lon;timestamp;temperature;humidity
80931;DHT22;70388;42.698;23.324;2023-12-22T00:01:12;3.30;82.70
80931;DHT22;70388;42.698;23.324;2023-12-22T00:03:41;3.40;82.90
80931;DHT22;70388;42.698;23.324;2023-12-22T00:06:07;3.30;82.30
80931;DHT22;70388;42.698;23.324;2023-12-22T00:08:33;3.10;83.20
80931;DHT22;70388;42.698;23.324;2023-12-22T00:10:58;3.00;84.70
80931;DHT22;70388;42.698;23.324;2023-12-22T00:13:25;3.10;84.70
80931;DHT22;70388;42.698;23.324;2023-12-22T00:15:50;3.00;84.10
80931;DHT22;70388;42.698;23.324;2023-12-22T00:18:16;2.70;86.10
80931;DHT22;70388;42.698;23.324;2023-12-22T00:20:42;2.50;88.10
80931;DHT22;70388;42.698;23.324;2023-12-22T00:23:08;2.30;89.20
80931;DHT22;70388;42.698;23.324;2023-12-22T00:25:33;2.40;89.50
80931;DHT22;70388;42.698;23.324;2023-12-22T00:27:59;2.50;88.70
80931;DHT22;70388;42.698;23.324;2023-12-22T00:30:25;2.30;89.40
80931;DHT22;70388;42.698;23.324;2023-12-22T00:32:51;2.30;90.10
80931;DHT22;70388;42.698;23.324;2023-12-22T00:35:16;2.30;89.50
80931;DHT22;70388;42.698;23.324;2023-12-22T00:37:42;2.20;90.00
80931;DHT22;70388;42.698;23.324;2023-12-22T00:40:08;2.10;90.20
80931;DHT22;70388;42.698;23.324;2023-12-22T00:42:35;2.20;90.40
80931;DHT22;70388;42.698;23.324;2023-12-22T00:45:01;2.10;90.40
80931;DHT22;70388;42.698;23.324;2023-12-22T00:47:28;2.30;90.40
80931;DHT22;70388;42.698;23.324;2023-12-22T00:49:54;2.30;90.20
80931;DHT22;70388;42.698;23.324;2023-12-22T00:52:19;2.60;89.50
80931;DHT22;70388;42.698;23.324;2023-12-22T00:54:45;2.60;88.70
80931;DHT22;70388;42.698;23.324;2023-12-22T00:57:11;2.80;88.30
80931;DHT22;70388;42.698;23.324;2023-12-22T00:59:38;3.10;87.10
80931;DHT22;70388;42.698;23.324;2023-12-22T01:02:04;3.10;86.40
80931;DHT22;70388;42.698;23.324;2023-12-22T01:04:29;3.30;85.50
80931;DHT22;70388;42.698;23.324;2023-12-22T01:06:55;3.40;84.70
80931;DHT22;70388;42.698;23.324;2023-12-22T01:09:21;3.60;83.60
80931;DHT22;70388;42.698;23.324;2023-12-22T01:11:46;3.60;83.30
80931;DHT22;70388;42.698;23.324;2023-12-22T01:14:13;3.70;82.60
80931;DHT22;70388;42.698;23.324;2023-12-22T01:16:39;3.80;82.30
80931;DHT22;70388;42.698;23.324;2023-12-22T01:19:05;3.80;81.70
80931;DHT22;70388;42.698;23.324;2023-12-22T01:21:31;3.90;81.90
80931;DHT22;70388;42.698;23.324;2023-12-22T01:23:57;3.90;80.90
80931;DHT22;70388;42.698;23.324;2023-12-22T01:26:24;4.00;79.70
80931;DHT22;70388;42.698;23.324;2023-12-22T01:28:50;3.90;79.70
80931;DHT22;70388;42.698;23.324;2023-12-22T01:31:16;3.90;79.90
80931;DHT22;70388;42.698;23.324;2023-12-22T01:33:42;3.80;80.40
80931;DHT22;70388;42.698;23.324;2023-12-22T01:36:08;3.80;80.40
80931;DHT22;70388;42.698;23.324;2023-12-22T01:38:34;3.80;80.90
80931;DHT22;70388;42.698;23.324;2023-12-22T01:40:59;3.90;80.30
80931;DHT22;70388;42.698;23.324;2023-12-22T01:43:25;4.00;79.60
80931;DHT22;70388;42.698;23.324;2023-12-22T01:45:56;4.00;79.20
80931;DHT22;70388;42.698;23.324;2023-12-22T01:48:24;4.10;78.80
80931;DHT22;70388;42.698;23.324;2023-12-22T01:50:51;4.20;78.60
80931;DHT22;70388;42.698;23.324;2023-12-22T01:53:19;4.10;78.80
80931;DHT22;70388;42.698;23.324;2023-12-22T01:55:46;4.20;78.60
80931;DHT22;70388;42.698;23.324;2023-12-22T01:58:12;4.20;78.40
80931;DHT22;70388;42.698;23.324;2023-12-22T02:00:38;4.20;78.10
80931;DHT22;70388;42.698;23.324;2023-12-22T02:03:04;4.20;78.10
80931;DHT22;70388;42.698;23.324;2023-12-22T02:05:30;4.30;78.00
80931;DHT22;70388;42.698;23.324;2023-12-22T02:07:56;4.30;77.60
80931;DHT22;70388;42.698;23.324;2023-12-22T02:10:22;4.40;78.00
80931;DHT22;70388;42.698;23.324;2023-12-22T02:12:48;4.40;77.90
80931;DHT22;70388;42.698;23.324;2023-12-22T02:15:14;4.40;78.10
80931;DHT22;70388;42.698;23.324;2023-12-22T02:20:13;4.40;78.50
80931;DHT22;70388;42.698;23.324;2023-12-22T02:22:39;4.30;79.00
80931;DHT22;70388;42.698;23.324;2023-12-22T02:25:04;4.30;79.30
80931;DHT22;70388;42.698;23.324;2023-12-22T02:27:49;4.30;79.70
80931;DHT22;70388;42.698;23.324;2023-12-22T02:32:59;4.20;79.70
80931;DHT22;70388;42.698;23.324;2023-12-22T02:35:27;4.00;81.00
80931;DHT22;70388;42.698;23.324;2023-12-22T02:37:56;3.90;81.90
80931;DHT22;70388;42.698;23.324;2023-12-22T02:40:23;3.70;82.80
80931;DHT22;70388;42.698;23.324;2023-12-22T02:42:52;3.50;84.10
80931;DHT22;70388;42.698;23.324;2023-12-22T02:45:19;3.70;83.60
80931;DHT22;70388;42.698;23.324;2023-12-22T02:47:45;3.70;83.20
80931;DHT22;70388;42.698;23.324;2023-12-22T02:50:13;3.80;82.90
80931;DHT22;70388;42.698;23.324;2023-12-22T02:52:39;3.90;82.60
80931;DHT22;70388;42.698;23.324;2023-12-22T02:55:05;3.80;81.90
80931;DHT22;70388;42.698;23.324;2023-12-22T02:57:31;3.40;82.30
80931;DHT22;70388;42.698;23.324;2023-12-22T02:59:57;3.10;84.90
80931;DHT22;70388;42.698;23.324;2023-12-22T03:02:24;2.90;86.00
80931;DHT22;70388;42.698;23.324;2023-12-22T03:04:49;2.70;87.50
80931;DHT22;70388;42.698;23.324;2023-12-22T03:07:15;2.60;89.60
80931;DHT22;70388;42.698;23.324;2023-12-22T03:09:42;2.50;90.20
80931;DHT22;70388;42.698;23.324;2023-12-22T03:12:08;2.60;90.30
80931;DHT22;70388;42.698;23.324;2023-12-22T03:14:34;2.90;89.30
80931;DHT22;70388;42.698;23.324;2023-12-22T03:17:01;3.00;88.40
80931;DHT22;70388;42.698;23.324;2023-12-22T03:19:27;3.30;87.20
80931;DHT22;70388;42.698;23.324;2023-12-22T03:21:52;3.40;86.30
80931;DHT22;70388;42.698;23.324;2023-12-22T03:24:18;3.60;84.80
80931;DHT22;70388;42.698;23.324;2023-12-22T03:26:45;3.70;83.40
80931;DHT22;70388;42.698;23.324;2023-12-22T03:29:11;3.90;81.90
80931;DHT22;70388;42.698;23.324;2023-12-22T03:31:37;4.00;81.70
80931;DHT22;70388;42.698;23.324;2023-12-22T03:34:03;4.00;81.10
80931;DHT22;70388;42.698;23.324;2023-12-22T03:36:29;4.00;81.00
80931;DHT22;70388;42.698;23.324;2023-12-22T03:38:54;3.90;81.20
80931;DHT22;70388;42.698;23.324;2023-12-22T03:41:20;3.80;81.70
80931;DHT22;70388;42.698;23.324;2023-12-22T03:43:46;3.80;82.00
80931;DHT22;70388;42.698;23.324;2023-12-22T03:46:12;3.60;83.00
80931;DHT22;70388;42.698;23.324;2023-12-22T03:48:37;3.70;83.40
80931;DHT22;70388;42.698;23.324;2023-12-22T03:51:03;3.80;83.30
80931;DHT22;70388;42.698;23.324;2023-12-22T03:53:29;3.80;83.00
80931;DHT22;70388;42.698;23.324;2023-12-22T03:55:55;3.70;83.60
80931;DHT22;70388;42.698;23.324;2023-12-22T03:58:21;3.40;83.90
80931;DHT22;70388;42.698;23.324;2023-12-22T04:00:46;3.00;86.60
80931;DHT22;70388;42.698;23.324;2023-12-22T04:03:13;3.10;87.30
80931;DHT22;70388;42.698;23.324;2023-12-22T04:05:39;3.00;87.20
80931;DHT22;70388;42.698;23.324;2023-12-22T04:08:05;3.00;88.00
80931;DHT22;70388;42.698;23.324;2023-12-22T04:10:31;3.20;88.50
80931;DHT22;70388;42.698;23.324;2023-12-22T04:12:57;3.20;88.10
80931;DHT22;70388;42.698;23.324;2023-12-22T04:15:22;3.30;88.20
80931;DHT22;70388;42.698;23.324;2023-12-22T04:17:48;3.40;87.50
80931;DHT22;70388;42.698;23.324;2023-12-22T04:20:15;3.70;86.80
80931;DHT22;70388;42.698;23.324;2023-12-22T04:22:41;3.80;85.30
80931;DHT22;70388;42.698;23.324;2023-12-22T04:25:07;4.00;85.10
80931;DHT22;70388;42.698;23.324;2023-12-22T04:27:34;4.00;84.10
80931;DHT22;70388;42.698;23.324;2023-12-22T04:30:00;4.10;84.60
80931;DHT22;70388;42.698;23.324;2023-12-22T04:32:25;4.30;84.20
80931;DHT22;70388;42.698;23.324;2023-12-22T04:34:51;4.20;83.60
80931;DHT22;70388;42.698;23.324;2023-12-22T04:37:17;4.00;84.20
80931;DHT22;70388;42.698;23.324;2023-12-22T04:39:43;4.10;84.30
80931;DHT22;70388;42.698;23.324;2023-12-22T04:42:08;4.10;85.20
80931;DHT22;70388;42.698;23.324;2023-12-22T04:44:34;4.20;84.00
80931;DHT22;70388;42.698;23.324;2023-12-22T04:47:01;4.30;84.90
80931;DHT22;70388;42.698;23.324;2023-12-22T04:49:27;4.30;84.60
80931;DHT22;70388;42.698;23.324;2023-12-22T04:51:52;4.40;83.70
80931;DHT22;70388;42.698;23.324;2023-12-22T04:54:18;4.40;85.50
80931;DHT22;70388;42.698;23.324;2023-12-22T04:56:44;4.50;84.10
80931;DHT22;70388;42.698;23.324;2023-12-22T04:59:10;4.50;84.40
80931;DHT22;70388;42.698;23.324;2023-12-22T05:01:35;4.50;84.40
80931;DHT22;70388;42.698;23.324;2023-12-22T05:04:01;4.60;82.90
80931;DHT22;70388;42.698;23.324;2023-12-22T05:06:27;4.50;83.90
80931;DHT22;70388;42.698;23.324;2023-12-22T05:08:55;4.10;85.60
80931;DHT22;70388;42.698;23.324;2023-12-22T05:11:22;4.00;87.30
80931;DHT22;70388;42.698;23.324;2023-12-22T05:13:48;3.90;88.00
80931;DHT22;70388;42.698;23.324;2023-12-22T05:16:14;4.10;87.90
80931;DHT22;70388;42.698;23.324;2023-12-22T05:18:40;4.10;87.80
80931;DHT22;70388;42.698;23.324;2023-12-22T05:21:06;4.20;87.30
80931;DHT22;70388;42.698;23.324;2023-12-22T05:23:31;4.10;89.00
80931;DHT22;70388;42.698;23.324;2023-12-22T05:25:58;4.20;88.70
80931;DHT22;70388;42.698;23.324;2023-12-22T05:28:24;4.30;88.10
80931;DHT22;70388;42.698;23.324;2023-12-22T05:30:49;4.60;86.60
80931;DHT22;70388;42.698;23.324;2023-12-22T05:33:15;4.50;87.20
80931;DHT22;70388;42.698;23.324;2023-12-22T05:35:41;4.60;86.70
80931;DHT22;70388;42.698;23.324;2023-12-22T05:38:07;4.70;86.10
80931;DHT22;70388;42.698;23.324;2023-12-22T05:40:32;4.80;85.60
80931;DHT22;70388;42.698;23.324;2023-12-22T05:42:58;4.80;85.30
80931;DHT22;70388;42.698;23.324;2023-12-22T05:45:24;4.80;85.00
80931;DHT22;70388;42.698;23.324;2023-12-22T05:47:50;4.80;85.40
80931;DHT22;70388;42.698;23.324;2023-12-22T05:50:16;4.70;86.40
80931;DHT22;70388;42.698;23.324;2023-12-22T05:52:42;4.60;87.90
80931;DHT22;70388;42.698;23.324;2023-12-22T05:55:11;4.70;87.20
80931;DHT22;70388;42.698;23.324;2023-12-22T05:57:37;4.60;87.00
80931;DHT22;70388;42.698;23.324;2023-12-22T06:00:04;4.50;87.60
80931;DHT22;70388;42.698;23.324;2023-12-22T06:02:33;4.50;88.70
80931;DHT22;70388;42.698;23.324;2023-12-22T06:04:59;4.70;88.40
80931;DHT22;70388;42.698;23.324;2023-12-22T06:07:26;4.80;88.10
80931;DHT22;70388;42.698;23.324;2023-12-22T06:09:52;4.90;87.40
80931;DHT22;70388;42.698;23.324;2023-12-22T06:12:18;5.00;86.50
80931;DHT22;70388;42.698;23.324;2023-12-22T06:14:43;5.00;86.50
80931;DHT22;70388;42.698;23.324;2023-12-22T06:17:09;4.90;86.80
80931;DHT22;70388;42.698;23.324;2023-12-22T06:19:38;4.70;87.80
80931;DHT22;70388;42.698;23.324;2023-12-22T06:22:04;4.70;89.60
80931;DHT22;70388;42.698;23.324;2023-12-22T06:24:29;4.80;88.40
80931;DHT22;70388;42.698;23.324;2023-12-22T06:26:55;5.00;86.90
80931;DHT22;70388;42.698;23.324;2023-12-22T06:29:21;5.00;86.90
80931;DHT22;70388;42.698;23.324;2023-12-22T06:31:47;4.90;86.90
80931;DHT22;70388;42.698;23.324;2023-12-22T06:34:19;4.50;89.30
80931;DHT22;70388;42.698;23.324;2023-12-22T06:36:44;4.40;90.40
80931;DHT22;70388;42.698;23.324;2023-12-22T06:39:10;4.30;90.80
80931;DHT22;70388;42.698;23.324;2023-12-22T06:41:36;4.30;91.00
80931;DHT22;70388;42.698;23.324;2023-12-22T06:44:02;4.30;91.30
80931;DHT22;70388;42.698;23.324;2023-12-22T06:46:28;4.60;91.10
80931;DHT22;70388;42.698;23.324;2023-12-22T06:48:55;4.80;90.40
80931;DHT22;70388;42.698;23.324;2023-12-22T06:51:31;4.60;90.80
80931;DHT22;70388;42.698;23.324;2023-12-22T06:54:01;4.70;91.00
80931;DHT22;70388;42.698;23.324;2023-12-22T06:56:28;4.60;90.90
80931;DHT22;70388;42.698;23.324;2023-12-22T06:58:56;4.40;91.50
80931;DHT22;70388;42.698;23.324;2023-12-22T07:01:30;4.50;91.70
80931;DHT22;70388;42.698;23.324;2023-12-22T07:03:57;4.50;91.20
80931;DHT22;70388;42.698;23.324;2023-12-22T07:06:25;4.40;91.60
80931;DHT22;70388;42.698;23.324;2023-12-22T07:11:41;4.60;91.00
80931;DHT22;70388;42.698;23.324;2023-12-22T07:14:07;4.50;91.60
80931;DHT22;70388;42.698;23.324;2023-12-22T07:16:34;4.60;91.60
80931;DHT22;70388;42.698;23.324;2023-12-22T07:19:00;4.70;91.40
80931;DHT22;70388;42.698;23.324;2023-12-22T07:21:26;4.70;91.40
80931;DHT22;70388;42.698;23.324;2023-12-22T07:23:52;4.80;91.50
80931;DHT22;70388;42.698;23.324;2023-12-22T07:26:18;4.80;91.00
80931;DHT22;70388;42.698;23.324;2023-12-22T07:28:43;4.90;91.50
80931;DHT22;70388;42.698;23.324;2023-12-22T07:31:09;4.90;91.60
80931;DHT22;70388;42.698;23.324;2023-12-22T07:33:35;5.00;91.70
80931;DHT22;70388;42.698;23.324;2023-12-22T07:36:00;5.10;91.30
80931;DHT22;70388;42.698;23.324;2023-12-22T07:38:26;5.30;91.10
80931;DHT22;70388;42.698;23.324;2023-12-22T07:40:52;5.30;91.00
80931;DHT22;70388;42.698;23.324;2023-12-22T07:43:18;5.10;91.30
80931;DHT22;70388;42.698;23.324;2023-12-22T07:45:44;5.40;91.20
80931;DHT22;70388;42.698;23.324;2023-12-22T07:48:09;5.60;90.60
80931;DHT22;70388;42.698;23.324;2023-12-22T07:50:35;5.50;90.30
80931;DHT22;70388;42.698;23.324;2023-12-22T07:53:01;5.20;91.20
80931;DHT22;70388;42.698;23.324;2023-12-22T07:55:27;5.10;91.70
80931;DHT22;70388;42.698;23.324;2023-12-22T07:57:53;5.20;91.60
80931;DHT22;70388;42.698;23.324;2023-12-22T08:00:18;5.20;92.10
80931;DHT22;70388;42.698;23.324;2023-12-22T08:02:44;5.10;92.30
80931;DHT22;70388;42.698;23.324;2023-12-22T08:05:10;5.10;92.40
80931;DHT22;70388;42.698;23.324;2023-12-22T08:07:36;5.00;92.90
80931;DHT22;70388;42.698;23.324;2023-12-22T08:10:03;5.10;93.00
80931;DHT22;70388;42.698;23.324;2023-12-22T08:12:29;5.30;92.90
80931;DHT22;70388;42.698;23.324;2023-12-22T08:14:55;5.70;91.80
80931;DHT22;70388;42.698;23.324;2023-12-22T08:17:20;5.90;91.00
80931;DHT22;70388;42.698;23.324;2023-12-22T08:19:46;6.00;90.50
80931;DHT22;70388;42.698;23.324;2023-12-22T08:22:12;6.20;89.20
80931;DHT22;70388;42.698;23.324;2023-12-22T08:24:41;6.20;90.10
80931;DHT22;70388;42.698;23.324;2023-12-22T08:27:08;6.00;90.90
80931;DHT22;70388;42.698;23.324;2023-12-22T08:29:34;5.90;91.30
80931;DHT22;70388;42.698;23.324;2023-12-22T08:32:00;5.70;92.10
80931;DHT22;70388;42.698;23.324;2023-12-22T08:34:27;5.70;92.70
80931;DHT22;70388;42.698;23.324;2023-12-22T08:36:53;5.60;93.00
80931;DHT22;70388;42.698;23.324;2023-12-22T08:39:19;5.60;93.50
80931;DHT22;70388;42.698;23.324;2023-12-22T08:41:45;5.80;93.10
80931;DHT22;70388;42.698;23.324;2023-12-22T08:44:12;6.00;92.60
80931;DHT22;70388;42.698;23.324;2023-12-22T08:46:40;6.10;92.20
80931;DHT22;70388;42.698;23.324;2023-12-22T08:49:06;6.30;91.70
80931;DHT22;70388;42.698;23.324;2023-12-22T08:51:32;6.30;91.70
80931;DHT22;70388;42.698;23.324;2023-12-22T08:53:58;6.30;91.70
80931;DHT22;70388;42.698;23.324;2023-12-22T08:56:24;6.40;91.80
80931;DHT22;70388;42.698;23.324;2023-12-22T08:58:52;6.40;91.70
80931;DHT22;70388;42.698;23.324;2023-12-22T09:01:18;6.40;91.90
80931;DHT22;70388;42.698;23.324;2023-12-22T09:03:44;6.40;91.80
80931;DHT22;70388;42.698;23.324;2023-12-22T09:06:22;6.40;91.80
80931;DHT22;70388;42.698;23.324;2023-12-22T09:08:48;6.50;91.90
80931;DHT22;70388;42.698;23.324;2023-12-22T09:11:16;6.50;91.70
80931;DHT22;70388;42.698;23.324;2023-12-22T09:13:42;6.40;91.90
80931;DHT22;70388;42.698;23.324;2023-12-22T09:16:09;6.50;91.90
80931;DHT22;70388;42.698;23.324;2023-12-22T09:18:35;6.60;91.60
80931;DHT22;70388;42.698;23.324;2023-12-22T09:21:01;6.70;91.50
80931;DHT22;70388;42.698;23.324;2023-12-22T09:23:28;6.80;91.10
80931;DHT22;70388;42.698;23.324;2023-12-22T09:25:54;6.90;91.20
80931;DHT22;70388;42.698;23.324;2023-12-22T09:28:20;6.90;91.50
80931;DHT22;70388;42.698;23.324;2023-12-22T09:30:46;6.80;91.80
80931;DHT22;70388;42.698;23.324;2023-12-22T09:33:12;6.80;92.00
80931;DHT22;70388;42.698;23.324;2023-12-22T09:35:38;6.70;92.50
80931;DHT22;70388;42.698;23.324;2023-12-22T09:38:08;6.80;92.50
80931;DHT22;70388;42.698;23.324;2023-12-22T09:40:38;6.90;92.40
80931;DHT22;70388;42.698;23.324;2023-12-22T09:43:06;7.00;92.40
80931;DHT22;70388;42.698;23.324;2023-12-22T09:45:36;7.10;92.40
80931;DHT22;70388;42.698;23.324;2023-12-22T09:48:03;7.20;92.30
80931;DHT22;70388;42.698;23.324;2023-12-22T09:50:31;7.30;92.20
80931;DHT22;70388;42.698;23.324;2023-12-22T09:52:57;7.40;92.30
80931;DHT22;70388;42.698;23.324;2023-12-22T09:55:23;7.30;91.70
80931;DHT22;70388;42.698;23.324;2023-12-22T09:57:49;7.40;92.10
80931;DHT22;70388;42.698;23.324;2023-12-22T10:00:16;7.50;91.90
80931;DHT22;70388;42.698;23.324;2023-12-22T10:02:43;7.70;91.60
80931;DHT22;70388;42.698;23.324;2023-12-22T10:05:11;7.80;91.20
80931;DHT22;70388;42.698;23.324;2023-12-22T10:07:39;7.90;90.90
80931;DHT22;70388;42.698;23.324;2023-12-22T10:10:07;7.90;90.60
80931;DHT22;70388;42.698;23.324;2023-12-22T10:12:34;8.00;90.30
80931;DHT22;70388;42.698;23.324;2023-12-22T10:15:01;8.10;90.20
80931;DHT22;70388;42.698;23.324;2023-12-22T10:17:29;8.10;90.20
80931;DHT22;70388;42.698;23.324;2023-12-22T10:19:55;8.10;90.20
80931;DHT22;70388;42.698;23.324;2023-12-22T10:22:21;8.00;90.40
80931;DHT22;70388;42.698;23.324;2023-12-22T10:24:49;8.10;90.20
80931;DHT22;70388;42.698;23.324;2023-12-22T10:27:18;8.10;90.40
80931;DHT22;70388;42.698;23.324;2023-12-22T10:29:55;8.10;90.70
80931;DHT22;70388;42.698;23.324;2023-12-22T10:32:21;8.30;90.30
80931;DHT22;70388;42.698;23.324;2023-12-22T10:34:48;8.40;90.10
80931;DHT22;70388;42.698;23.324;2023-12-22T10:37:14;8.50;89.60
80931;DHT22;70388;42.698;23.324;2023-12-22T10:39:40;8.70;88.70
80931;DHT22;70388;42.698;23.324;2023-12-22T10:42:06;8.80;87.10
80931;DHT22;70388;42.698;23.324;2023-12-22T10:44:32;8.80;86.90
80931;DHT22;70388;42.698;23.324;2023-12-22T10:46:58;8.80;86.30
80931;DHT22;70388;42.698;23.324;2023-12-22T10:49:24;8.80;86.60
80931;DHT22;70388;42.698;23.324;2023-12-22T10:51:51;8.90;86.40
80931;DHT22;70388;42.698;23.324;2023-12-22T10:54:18;9.00;86.20
80931;DHT22;70388;42.698;23.324;2023-12-22T10:56:44;9.00;85.90
80931;DHT22;70388;42.698;23.324;2023-12-22T10:59:10;9.20;85.70
80931;DHT22;70388;42.698;23.324;2023-12-22T11:01:37;9.20;85.00
80931;DHT22;70388;42.698;23.324;2023-12-22T11:04:07;9.20;84.60
80931;DHT22;70388;42.698;23.324;2023-12-22T11:06:36;9.30;84.20
80931;DHT22;70388;42.698;23.324;2023-12-22T11:09:09;9.10;84.80
80931;DHT22;70388;42.698;23.324;2023-12-22T11:11:39;9.20;85.20
80931;DHT22;70388;42.698;23.324;2023-12-22T11:14:07;9.10;85.50
80931;DHT22;70388;42.698;23.324;2023-12-22T11:16:35;9.20;85.50
80931;DHT22;70388;42.698;23.324;2023-12-22T11:19:02;9.10;84.40
80931;DHT22;70388;42.698;23.324;2023-12-22T11:21:29;9.10;85.10
80931;DHT22;70388;42.698;23.324;2023-12-22T11:23:56;9.00;85.50
80931;DHT22;70388;42.698;23.324;2023-12-22T11:26:24;9.10;85.30
80931;DHT22;70388;42.698;23.324;2023-12-22T11:28:51;9.00;85.30
80931;DHT22;70388;42.698;23.324;2023-12-22T11:31:18;9.00;86.00
80931;DHT22;70388;42.698;23.324;2023-12-22T11:33:45;9.00;86.50
80931;DHT22;70388;42.698;23.324;2023-12-22T11:36:15;8.80;87.30
80931;DHT22;70388;42.698;23.324;2023-12-22T11:38:42;9.00;87.40
80931;DHT22;70388;42.698;23.324;2023-12-22T11:41:20;9.00;86.20
80931;DHT22;70388;42.698;23.324;2023-12-22T11:43:47;9.10;84.60
80931;DHT22;70388;42.698;23.324;2023-12-22T11:46:16;9.30;81.90
80931;DHT22;70388;42.698;23.324;2023-12-22T11:48:49;9.40;80.90
80931;DHT22;70388;42.698;23.324;2023-12-22T11:51:16;9.40;80.40
80931;DHT22;70388;42.698;23.324;2023-12-22T11:53:42;9.50;77.80
80931;DHT22;70388;42.698;23.324;2023-12-22T11:56:08;9.50;75.30
80931;DHT22;70388;42.698;23.324;2023-12-22T11:58:39;9.40;76.30
80931;DHT22;70388;42.698;23.324;2023-12-22T12:01:09;9.30;74.00
80931;DHT22;70388;42.698;23.324;2023-12-22T12:03:57;9.40;73.30
80931;DHT22;70388;42.698;23.324;2023-12-22T12:08:54;9.60;71.70
80931;DHT22;70388;42.698;23.324;2023-12-22T12:12:08;9.60;72.00
80931;DHT22;70388;42.698;23.324;2023-12-22T12:14:13;9.60;71.90
80931;DHT22;70388;42.698;23.324;2023-12-22T12:16:40;9.60;70.90
80931;DHT22;70388;42.698;23.324;2023-12-22T12:19:09;9.60;70.20
80931;DHT22;70388;42.698;23.324;2023-12-22T12:21:35;9.60;70.30
80931;DHT22;70388;42.698;23.324;2023-12-22T12:24:01;9.50;70.70
80931;DHT22;70388;42.698;23.324;2023-12-22T12:26:27;9.40;70.20
80931;DHT22;70388;42.698;23.324;2023-12-22T12:28:54;9.40;70.20
80931;DHT22;70388;42.698;23.324;2023-12-22T12:31:35;9.40;69.30
80931;DHT22;70388;42.698;23.324;2023-12-22T12:34:04;9.50;68.90
80931;DHT22;70388;42.698;23.324;2023-12-22T12:36:31;9.40;69.10
80931;DHT22;70388;42.698;23.324;2023-12-22T12:39:14;9.40;69.00
80931;DHT22;70388;42.698;23.324;2023-12-22T12:41:42;9.40;67.80
80931;DHT22;70388;42.698;23.324;2023-12-22T12:44:11;9.20;68.00
80931;DHT22;70388;42.698;23.324;2023-12-22T12:46:39;9.20;68.30
80931;DHT22;70388;42.698;23.324;2023-12-22T12:49:06;9.10;68.30
80931;DHT22;70388;42.698;23.324;2023-12-22T12:51:36;9.20;68.10
80931;DHT22;70388;42.698;23.324;2023-12-22T12:54:03;9.10;67.90
80931;DHT22;70388;42.698;23.324;2023-12-22T12:56:29;9.20;68.00
80931;DHT22;70388;42.698;23.324;2023-12-22T12:58:55;9.20;68.00
80931;DHT22;70388;42.698;23.324;2023-12-22T13:01:20;9.10;68.60
80931;DHT22;70388;42.698;23.324;2023-12-22T13:03:56;9.10;68.00
80931;DHT22;70388;42.698;23.324;2023-12-22T13:06:22;9.20;68.00
80931;DHT22;70388;42.698;23.324;2023-12-22T13:08:51;9.20;68.00
80931;DHT22;70388;42.698;23.324;2023-12-22T13:11:25;9.00;68.10
80931;DHT22;70388;42.698;23.324;2023-12-22T13:13:52;8.90;68.50
80931;DHT22;70388;42.698;23.324;2023-12-22T13:16:25;8.80;68.30
80931;DHT22;70388;42.698;23.324;2023-12-22T13:18:52;8.90;67.40
80931;DHT22;70388;42.698;23.324;2023-12-22T13:21:18;8.90;66.90
80931;DHT22;70388;42.698;23.324;2023-12-22T13:23:44;8.90;66.90
80931;DHT22;70388;42.698;23.324;2023-12-22T13:26:22;8.90;67.00
80931;DHT22;70388;42.698;23.324;2023-12-22T13:28:49;8.80;67.50
80931;DHT22;70388;42.698;23.324;2023-12-22T13:31:22;8.80;67.50
80931;DHT22;70388;42.698;23.324;2023-12-22T13:33:48;8.70;68.20
80931;DHT22;70388;42.698;23.324;2023-12-22T13:36:14;8.60;68.10
80931;DHT22;70388;42.698;23.324;2023-12-22T13:38:48;8.70;68.00
80931;DHT22;70388;42.698;23.324;2023-12-22T13:41:15;8.70;68.00
80931;DHT22;70388;42.698;23.324;2023-12-22T13:43:41;8.80;68.20
80931;DHT22;70388;42.698;23.324;2023-12-22T13:46:12;8.80;67.50
80931;DHT22;70388;42.698;23.324;2023-12-22T13:48:40;8.80;67.40
80931;DHT22;70388;42.698;23.324;2023-12-22T13:51:06;8.70;67.70
80931;DHT22;70388;42.698;23.324;2023-12-22T13:53:32;8.70;67.70
80931;DHT22;70388;42.698;23.324;2023-12-22T13:56:00;8.80;67.50
80931;DHT22;70388;42.698;23.324;2023-12-22T13:58:27;8.80;67.00
80931;DHT22;70388;42.698;23.324;2023-12-22T14:00:53;8.90;66.90
80931;DHT22;70388;42.698;23.324;2023-12-22T14:03:19;8.80;67.00
80931;DHT22;70388;42.698;23.324;2023-12-22T14:05:48;8.80;66.70
80931;DHT22;70388;42.698;23.324;2023-12-22T14:08:15;8.80;66.60
80931;DHT22;70388;42.698;23.324;2023-12-22T14:10:47;8.80;66.70
80931;DHT22;70388;42.698;23.324;2023-12-22T14:13:17;8.80;65.90
80931;DHT22;70388;42.698;23.324;2023-12-22T14:15:43;8.80;65.80
80931;DHT22;70388;42.698;23.324;2023-12-22T14:18:10;8.80;65.60
80931;DHT22;70388;42.698;23.324;2023-12-22T14:20:36;8.70;66.80
80931;DHT22;70388;42.698;23.324;2023-12-22T14:23:01;8.80;65.90
80931;DHT22;70388;42.698;23.324;2023-12-22T14:25:27;8.80;65.60
80931;DHT22;70388;42.698;23.324;2023-12-22T14:27:53;8.80;65.60
80931;DHT22;70388;42.698;23.324;2023-12-22T14:30:23;8.80;65.20
80931;DHT22;70388;42.698;23.324;2023-12-22T14:32:49;8.80;65.40
80931;DHT22;70388;42.698;23.324;2023-12-22T14:35:15;8.70;65.60
80931;DHT22;70388;42.698;23.324;2023-12-22T14:37:41;8.80;64.90
80931;DHT22;70388;42.698;23.324;2023-12-22T14:40:09;8.80;64.70
80931;DHT22;70388;42.698;23.324;2023-12-22T14:42:35;8.80;64.70
80931;DHT22;70388;42.698;23.324;2023-12-22T14:45:01;8.80;64.40
80931;DHT22;70388;42.698;23.324;2023-12-22T14:47:27;8.70;64.60
80931;DHT22;70388;42.698;23.324;2023-12-22T14:49:53;8.70;64.70
80931;DHT22;70388;42.698;23.324;2023-12-22T14:52:19;8.70;64.90
80931;DHT22;70388;42.698;23.324;2023-12-22T14:54:45;8.60;65.20
80931;DHT22;70388;42.698;23.324;2023-12-22T14:57:11;8.50;65.40
80931;DHT22;70388;42.698;23.324;2023-12-22T14:59:38;8.50;65.60
80931;DHT22;70388;42.698;23.324;2023-12-22T15:02:03;8.50;65.80
80931;DHT22;70388;42.698;23.324;2023-12-22T15:04:32;8.50;65.70
80931;DHT22;70388;42.698;23.324;2023-12-22T15:06:58;8.50;65.20
80931;DHT22;70388;42.698;23.324;2023-12-22T15:09:24;8.50;64.90
80931;DHT22;70388;42.698;23.324;2023-12-22T15:11:50;8.60;64.50
80931;DHT22;70388;42.698;23.324;2023-12-22T15:14:16;8.70;64.50
80931;DHT22;70388;42.698;23.324;2023-12-22T15:16:42;8.60;64.40
80931;DHT22;70388;42.698;23.324;2023-12-22T15:19:14;8.80;63.80
80931;DHT22;70388;42.698;23.324;2023-12-22T15:21:40;8.70;63.40
80931;DHT22;70388;42.698;23.324;2023-12-22T15:24:07;8.70;63.20
80931;DHT22;70388;42.698;23.324;2023-12-22T15:26:35;8.60;63.20
80931;DHT22;70388;42.698;23.324;2023-12-22T15:29:03;8.50;63.30
80931;DHT22;70388;42.698;23.324;2023-12-22T15:31:29;8.50;63.40
80931;DHT22;70388;42.698;23.324;2023-12-22T15:33:57;8.50;63.40
80931;DHT22;70388;42.698;23.324;2023-12-22T15:36:23;8.50;63.70
80931;DHT22;70388;42.698;23.324;2023-12-22T15:38:49;8.50;63.50